Latest Weather Observations for Tuggeranong

IDN60801

Issued at 9:02 am EST Sunday 26 April 2015 (issued every 30 minutes, with the page automatically refreshed every 10 minutes)

About weather observations | Map of weather stations | Latest weather observations for NSW | Other Formats
Station Details ID: 070339 Name: TUGGERANONG (ISABELLA PLAINS) AWS Lat: -35.42 Lon: 149.09 Height: 586.7 m
Data from the previous 72 hours. | See also: Recent months at Tuggeranong
Date/Time
EST
Temp
°C
App
Temp
°C
Dew
Point
Rel
Hum
%
Delta-T
°C
Wind Press
QNH
hPa
Press
MSL
hPa
Rain
since 9 am
mm
Dir
 
Spd
km/h
Gust
km/h
Spd
kts
Gust
kts
26/09:00am 9.5 8.1 7.4 87 1.0 W 4 9 2 5 1011.6 1010.6 0.0
26/08:30am 8.6 7.7 7.8 95 0.4 WSW 2 7 1 4 1011.7 1010.7 0.0
26/08:00am 7.9 6.6 7.5 97 0.2 NNW 4 7 2 4 1011.3 1010.3 0.0
26/07:30am 7.3 6.7 7.2 99 0.0 CALM 0 0 0 0 1011.2 1010.2 0.0
26/07:00am 7.0 5.5 6.9 99 0.0 NNW 4 7 2 4 1010.7 1009.7 0.0
26/06:30am 7.1 6.4 7.0 99 0.0 CALM 0 0 0 0 1010.4 1009.3 0.0
26/06:00am 7.3 5.5 7.2 99 0.0 WNW 6 9 3 5 1009.9 1008.9 0.0
26/05:30am 7.4 6.8 7.3 99 0.0 CALM 0 0 0 0 1009.8 1008.8 0.0
26/05:00am 7.2 6.5 7.1 99 0.0 CALM 0 0 0 0 1009.6 1008.6 0.0
26/04:30am 7.1 6.4 7.0 99 0.0 CALM 0 4 0 2 1009.4 1008.4 0.0
26/04:00am 6.9 6.2 6.8 99 0.0 CALM 0 6 0 3 1009.4 1008.4 0.0
26/03:30am 6.6 5.8 6.5 99 0.0 CALM 0 0 0 0 1009.2 1008.2 0.0
26/03:00am 6.5 5.7 6.4 99 0.0 CALM 0 0 0 0 1009.1 1008.0 0.0
26/02:30am 6.2 4.5 5.8 97 0.2 WNW 4 7 2 4 1009.2 1008.2 0.0
26/02:00am 6.2 4.1 5.8 97 0.2 NW 6 9 3 5 1009.2 1008.2 0.0
26/01:30am 6.5 4.8 5.8 95 0.3 NW 4 9 2 5 1009.2 1008.2 0.0
26/01:00am 6.9 5.6 5.8 93 0.5 N 2 7 1 4 1009.3 1008.3 0.0
26/12:30am 7.5 6.1 7.1 97 0.2 N 4 7 2 4 1009.1 1008.0 0.0
26/12:00am 7.1 5.6 7.0 99 0.0 E 4 9 2 5 1009.0 1007.9 0.0
 
Date/Time
EST
Temp
°C
App
Temp
°C
Dew
Point
Rel
Hum
%
Delta-T
°C
Wind Press
QNH
hPa
Press
MSL
hPa
Rain
since 9 am
mm
Dir
 
Spd
km/h
Gust
km/h
Spd
kts
Gust
kts
25/11:30pm 7.3 5.5 7.0 98 0.1 E 6 9 3 5 1009.1 1008.0 0.0
25/11:00pm 7.3 6.5 6.7 96 0.3 CALM 0 4 0 2 1009.2 1008.2 0.0
25/10:30pm 7.5 6.4 6.9 96 0.3 SW 2 6 1 3 1009.4 1008.4 0.0
25/10:00pm 7.9 7.2 7.1 95 0.4 CALM 0 0 0 0 1009.7 1008.7 0.0
25/09:30pm 8.1 7.5 7.3 95 0.4 CALM 0 0 0 0 1009.9 1008.9 0.0
25/09:00pm 8.2 7.6 7.4 95 0.4 CALM 0 0 0 0 1009.9 1008.9 0.0
25/08:30pm 8.3 6.6 7.4 94 0.4 NNW 6 9 3 5 1009.6 1008.6 0.0
25/08:00pm 8.4 6.6 7.2 92 0.6 WSW 6 7 3 4 1009.4 1008.4 0.0
25/07:30pm 9.0 6.4 7.6 91 0.7 S 11 17 6 9 1008.9 1007.8 0.0
25/07:00pm 8.5 7.9 7.6 94 0.4 CALM 0 0 0 0 1008.7 1007.6 0.0
25/05:30pm 10.7 10.4 8.5 86 1.1 CALM 0 0 0 0 1007.5 1006.4 0.0
25/05:00pm 11.0 9.5 8.6 85 1.2 SSE 6 9 3 5 1007.4 1006.3 0.0
25/04:30pm 11.1 9.5 7.8 80 1.7 W 6 9 3 5 1007.8 1006.8 0.0
25/04:00pm 12.0 10.3 7.7 75 2.2 WSW 6 7 3 4 1007.3 1006.2 0.0
25/03:30pm 11.4 9.8 8.1 80 1.7 NE 6 13 3 7 1007.1 1006.0 0.0
25/03:00pm 10.6 8.0 7.8 83 1.4 SSW 11 19 6 10 1008.1 1007.1 0.0
25/02:30pm 10.9 7.9 6.1 72 2.3 SW 11 20 6 11 1008.6 1007.5 0.0
25/02:00pm 10.7 6.3 5.0 68 2.7 S 17 28 9 15 1008.6 1007.5 0.0
25/01:30pm 15.0 14.3 8.5 65 3.4 NW 2 9 1 5 1007.5 1006.4 0.0
25/01:00pm 15.3 13.5 7.8 61 3.9 WSW 7 11 4 6 1006.9 1005.8 0.0
25/12:30pm 16.1 13.5 7.8 58 4.3 WSW 11 15 6 8 1007.2 1006.1 0.0
25/12:00pm 15.7 13.8 8.9 64 3.6 WSW 9 17 5 9 1007.8 1006.8 0.0
25/11:30am 14.7 12.4 7.5 62 3.7 SSW 9 13 5 7 1008.6 1007.5 0.0
25/11:00am 13.4 11.1 7.4 67 3.0 S 9 11 5 6 1009.0 1007.9 0.0
25/10:30am 13.3 10.3 7.7 69 2.8 W 13 17 7 9 1009.4 1008.4 0.0
25/10:00am 12.8 10.8 8.5 75 2.2 WSW 9 11 5 6 1009.2 1008.2 0.0
25/09:30am 11.7 11.5 8.9 83 1.4 CALM 0 0 0 0 1009.5 1008.5 0.0
25/09:00am 10.6 9.5 8.5 87 1.1 SSW 4 7 2 4 1009.9 1008.9 0.0
25/08:30am 9.1 7.8 7.5 90 0.8 WSW 4 9 2 5 1009.8 1008.8 0.0
25/08:00am 9.1 8.7 8.2 94 0.4 CALM 0 0 0 0 1009.5 1008.5 0.0
25/07:30am 7.1 6.4 7.0 99 0.0 CALM 0 6 0 3 1009.6 1008.6 0.0
25/07:00am 5.5 3.1 5.4 99 0.0 WNW 7 9 4 5 1009.4 1008.4 0.0
25/06:30am 5.5 3.7 5.4 99 0.0 ESE 4 11 2 6 1009.0 1007.9 0.0
25/06:00am 5.0 3.9 4.9 99 0.0 CALM 0 0 0 0 1009.1 1008.0 0.0
25/05:30am 5.1 4.0 5.0 99 0.0 CALM 0 0 0 0 1008.5 1007.4 0.0
25/05:00am 5.1 3.9 4.7 97 0.2 CALM 0 6 0 3 1008.5 1007.4 0.0
25/04:30am 6.2 4.2 6.1 99 0.0 ENE 6 9 3 5 1008.6 1007.5 0.0
25/04:00am 6.2 4.9 5.9 98 0.1 ENE 2 6 1 3 1008.2 1007.2 0.0
25/03:30am 6.4 5.4 5.7 95 0.3 CALM 0 0 0 0 1008.1 1007.1 0.0
25/03:00am 7.2 5.1 6.6 96 0.3 E 7 9 4 5 1008.0 1007.0 0.0
25/02:30am 7.3 5.7 6.4 94 0.4 ENE 4 7 2 4 1008.1 1007.1 0.0
25/02:00am 7.9 7.1 6.7 92 0.6 CALM 0 0 0 0 1008.1 1007.1 0.0
25/01:30am 9.0 7.3 7.5 90 0.7 E 6 11 3 6 1008.4 1007.3 0.0
25/01:00am 9.6 9.1 7.7 88 0.9 CALM 0 0 0 0 1008.5 1007.4 0.0
25/12:30am 10.3 8.5 7.9 85 1.2 NNW 7 9 4 5 1008.5 1007.4 0.0
25/12:00am 11.1 9.4 7.6 79 1.8 WNW 6 9 3 5 1008.6 1007.5 0.0
 
Date/Time
EST
Temp
°C
App
Temp
°C
Dew
Point
Rel
Hum
%
Delta-T
°C
Wind Press
QNH
hPa
Press
MSL
hPa
Rain
since 9 am
mm
Dir
 
Spd
km/h
Gust
km/h
Spd
kts
Gust
kts
24/11:30pm 12.3 10.4 9.0 80 1.7 NNW 9 11 5 6 1008.6 1007.5 0.0
24/11:00pm 11.8 10.3 9.2 84 1.4 NNW 7 11 4 6 1008.5 1007.4 0.0
24/10:30pm 10.4 8.8 8.2 86 1.1 NNE 6 7 3 4 1008.5 1007.4 0.0
24/10:00pm 11.2 10.1 8.6 84 1.3 ENE 4 6 2 3 1008.4 1007.3 0.0
24/09:30pm 11.9 10.9 8.9 82 1.5 ENE 4 6 2 3 1008.4 1007.3 0.0
24/09:00pm 12.6 11.2 8.9 78 1.9 N 6 9 3 5 1008.2 1007.2 0.0
24/08:30pm 13.3 11.4 9.2 76 2.1 N 9 13 5 7 1008.0 1007.0 0.0
24/08:00pm 13.5 11.6 9.2 75 2.3 N 9 15 5 8 1007.8 1006.8 0.0
24/07:30pm 13.7 11.9 9.4 75 2.3 NW 9 19 5 10 1007.8 1006.8 0.0
24/07:00pm 14.3 12.5 9.5 73 2.5 NW 9 15 5 8 1007.9 1006.9 0.0
24/06:30pm 14.9 12.8 9.7 71 2.8 NW 11 17 6 9 1007.6 1006.5 0.0
24/06:00pm 15.0 13.3 9.8 71 2.8 NW 9 15 5 8 1007.4 1006.3 0.0
24/05:30pm 14.9 12.7 9.5 70 2.9 NW 11 15 6 8 1007.1 1006.0 0.0
24/05:00pm 15.9 14.2 10.0 68 3.2 WNW 9 15 5 8 1007.0 1005.9 0.0
24/04:30pm 15.9 13.4 9.8 67 3.3 WNW 13 22 7 12 1007.0 1005.9 0.0
24/04:00pm 16.1 13.6 9.8 66 3.4 NW 13 19 7 10 1006.8 1005.7 0.0
24/03:30pm 16.3 13.0 9.7 65 3.6 NW 17 26 9 14 1006.7 1005.6 0.0
24/03:00pm 16.5 13.2 9.7 64 3.7 NW 17 26 9 14 1006.8 1005.7 0.0
24/02:30pm 16.5 13.0 10.1 66 3.5 NW 19 28 10 15 1006.6 1005.5 0.0
24/02:00pm 16.2 12.8 10.7 70 3.0 NW 19 32 10 17 1006.6 1005.5 0.0
24/01:30pm 17.0 13.8 11.1 68 3.3 WNW 19 32 10 17 1006.3 1005.3 0.0
24/01:00pm 16.3 12.1 11.2 72 2.8 NW 24 32 13 17 1006.6 1005.5 0.0
24/12:30pm 16.9 14.7 12.2 74 2.7 NW 15 24 8 13 1006.8 1005.7 0.0
24/12:00pm 16.9 15.2 12.4 75 2.6 NW 13 20 7 11 1007.0 1005.9 0.0
24/11:30am 17.2 15.8 13.5 79 2.1 NNW 13 20 7 11 1007.3 1006.2 0.0
24/11:00am 16.3 14.4 13.0 81 1.9 NNW 15 20 8 11 1007.8 1006.8 0.0
24/10:30am 15.7 13.8 13.0 84 1.5 N 15 22 8 12 1008.0 1007.0 0.0
24/10:00am 15.6 14.1 13.1 85 1.4 N 13 19 7 10 1008.0 1007.0 0.0
24/09:30am 15.3 13.8 13.0 86 1.3 N 13 19 7 10 1008.1 1007.1 0.0
24/09:00am 14.9 14.2 13.1 89 1.0 NNW 9 15 5 8 1008.5 1007.4 0.0
24/08:30am 14.6 13.1 13.1 91 0.9 N 13 17 7 9 1008.6 1007.5 0.0
24/08:00am 13.9 13.6 13.4 97 0.3 N 7 11 4 6 1008.6 1007.5 0.0
24/07:30am 13.4 12.8 13.4 100 0.0 N 9 15 5 8 1008.7 1007.6 0.0
24/07:00am 12.4 13.2 12.4 100 0.0 CALM 0 0 0 0 1008.4 1007.3 0.0
24/06:30am 12.6 13.4 12.6 100 0.0 CALM 0 0 0 0 1008.2 1007.2 0.0
24/06:00am 12.1 12.8 12.1 100 0.0 CALM 0 0 0 0 1008.2 1007.2 0.0
24/05:30am 12.4 11.8 12.4 100 0.0 SSE 7 9 4 5 1008.1 1007.1 0.0
24/05:00am 12.8 12.9 12.6 99 0.1 N 4 6 2 3 1008.4 1007.3 0.0
24/04:30am 13.1 14.0 12.9 99 0.1 CALM 0 6 0 3 1008.4 1007.3 0.0
24/04:00am 13.3 14.3 13.1 99 0.1 CALM 0 0 0 0 1008.5 1007.4 0.0
24/03:30am 13.7 13.6 13.4 98 0.2 NNW 6 7 3 4 1008.9 1007.8 0.0
24/03:00am 13.6 13.9 13.4 99 0.1 NNW 4 7 2 4 1009.2 1008.2 0.0
24/02:30am 13.9 15.1 13.7 99 0.1 CALM 0 0 0 0 1009.3 1008.3 0.0
24/02:00am 13.8 14.9 13.5 98 0.2 CALM 0 0 0 0 1009.8 1008.8 0.0
24/01:30am 14.1 15.3 13.8 98 0.2 CALM 0 6 0 3 1009.7 1008.7 0.0
24/01:00am 14.2 15.5 14.0 99 0.1 CALM 0 0 0 0 1010.1 1009.1 0.0
24/12:30am 14.3 15.6 14.0 98 0.2 CALM 0 0 0 0 1010.7 1009.7 0.0
24/12:00am 14.2 15.4 13.7 97 0.3 CALM 0 0 0 0 1010.9 1009.9 0.0
 
Date/Time
EST
Temp
°C
App
Temp
°C
Dew
Point
Rel
Hum
%
Delta-T
°C
Wind Press
QNH
hPa
Press
MSL
hPa
Rain
since 9 am
mm
Dir
 
Spd
km/h
Gust
km/h
Spd
kts
Gust
kts
23/11:30pm 14.3 14.4 14.0 98 0.2 NW 6 9 3 5 1011.2 1010.2 0.0
23/11:00pm 14.4 14.3 13.9 97 0.3 WNW 7 9 4 5 1011.4 1010.4 0.0
23/10:30pm 14.7 15.5 13.6 93 0.6 NNW 2 7 1 4 1011.7 1010.7 0.0
23/10:00pm 14.9 16.0 13.4 91 0.9 CALM 0 0 0 0 1011.9 1010.9 0.0
23/09:30pm 15.0 16.1 13.4 90 0.9 CALM 0 0 0 0 1012.4 1011.4 0.0
23/09:00pm 15.1 16.1 13.3 89 1.0 CALM 0 0 0 0 1012.5 1011.5 0.0
23/08:30pm 15.1 15.4 13.5 90 0.9 NE 4 9 2 5 1012.6 1011.6 0.0
23/08:00pm 15.1 15.7 13.1 88 1.1 ESE 2 6 1 3 1012.5 1011.5 0.0
23/07:30pm 15.2 15.1 13.2 88 1.1 ENE 6 7 3 4 1012.5 1011.5 0.0
23/07:00pm 15.4 15.3 13.2 87 1.3 ESE 6 7 3 4 1012.4 1011.4 0.0
23/06:30pm 15.4 14.9 12.7 84 1.5 E 7 11 4 6 1012.2 1011.2 0.0
23/06:00pm 15.6 14.6 12.2 80 1.9 E 9 13 5 7 1011.9 1010.9 0.0
23/05:30pm 15.6 14.0 12.9 84 1.5 ENE 13 17 7 9 1011.4 1010.4 0.0
23/05:00pm 15.8 15.4 14.0 89 1.0 ENE 9 13 5 7 1011.1 1010.1 0.0
23/04:30pm 16.2 15.1 14.4 89 1.1 E 13 17 7 9 1011.1 1010.1 0.0
23/04:00pm 18.4 16.0 12.6 69 3.3 ESE 17 33 9 18 1010.9 1009.9 0.0
23/03:30pm 22.3 20.7 11.4 50 6.2 SSW 11 17 6 9 1010.5 1009.4 0.0
23/03:00pm 22.3 21.4 12.5 53 5.7 SW 9 13 5 7 1010.6 1009.5 0.0
23/02:30pm 21.8 20.0 12.1 54 5.6 SW 13 19 7 10 1010.8 1009.8 0.0
23/02:00pm 21.4 19.4 12.8 58 5.0 S 15 22 8 12 1011.0 1010.0 0.0
23/01:30pm 21.5 19.4 13.7 61 4.6 SSW 17 24 9 13 1011.2 1010.2 0.0
23/01:00pm 21.5 19.8 12.6 57 5.2 SE 13 20 7 11 1011.6 1010.6 0.0
23/12:30pm 21.1 19.2 13.0 60 4.7 SSE 15 26 8 14 1012.2 1011.2 0.0
23/12:00pm 20.2 17.7 12.2 60 4.6 S 17 24 9 13 1012.9 1011.9 0.0
23/11:30am 19.4 16.9 12.4 64 4.0 S 17 28 9 15 1013.3 1012.3 0.0
23/11:00am 19.4 17.0 12.7 65 3.9 S 17 24 9 13 1013.7 1012.8 0.0
23/10:30am 18.4 15.5 12.4 68 3.4 SSE 19 24 10 13 1014.2 1013.2 0.0
23/10:00am 18.0 15.7 13.1 73 2.8 SSE 17 22 9 12 1014.4 1013.4 0.0
23/09:30am 16.3 13.7 12.1 76 2.4 S 17 26 9 14 1014.9 1013.9 0.0

Other Formats:

Comma delimited format used in spreadsheet applications
http://www.bom.gov.au/fwo/IDN60801/IDN60801.94925.axf

JavaScript Object Notation format (JSON) in row-major order
http://www.bom.gov.au/fwo/IDN60801/IDN60801.94925.json